Time;durP1;ratioP1;P1;durP2;ratioP2;P2;SDS_P1;SDS_P2;PMS_P1;PMS_P2;Temp;Humidity;BMP_temperature;BMP_pressure;BME280_temperature;BME280_humidity;BME280_pressure;Samples;Min_cycle;Max_cycle;Signal;HPM_P1;HPM_P2
2022/01/28 00:04:49;;;;;;;10.97;6.43;;;;;;;;;;5065141;28;20260;-81
2022/01/28 00:07:14;;;;;;;9.53;6.73;;;;;;;;;;5047837;28;20180;-81
2022/01/28 00:09:40;;;;;;;10.73;8.13;;;;;;;;;;5046652;28;20264;-81
2022/01/28 00:12:07;;;;;;;12.30;6.30;;;;;;;;;;5043798;28;20167;-80
2022/01/28 00:14:43;;;;;;;10.60;8.17;;;;;;;;;;5045525;28;20539;-81
2022/01/28 00:18:18;;;;;;;12.00;8.90;;;;;;;;;;5061359;28;20180;-81
2022/01/28 00:38:45;;;;;;;11.13;7.33;;;;;;;;;;5048575;28;20181;-81
2022/01/28 00:41:10;;;;;;;10.90;6.67;;;;;;;;;;5028294;28;20214;-81
2022/01/28 00:43:36;;;;;;;10.10;7.20;;;;;;;;;;5024633;28;20191;-81
2022/01/28 00:46:01;;;;;;;13.37;8.17;;;;;;;;;;5044611;28;20225;-81
2022/01/28 00:48:29;;;;;;;14.23;9.90;;;;;;;;;;5023964;28;20205;-81
2022/01/28 00:50:54;;;;;;;13.70;8.77;;;;;;;;;;5027385;28;20427;-82
2022/01/28 00:53:20;;;;;;;14.50;7.13;;;;;;;;;;5026853;28;20178;-81
2022/01/28 00:55:45;;;;;;;14.73;9.60;;;;;;;;;;5030088;28;20461;-81
2022/01/28 00:58:10;;;;;;;14.20;9.83;;;;;;;;;;5019257;28;20272;-81
2022/01/28 01:00:35;;;;;;;13.57;10.20;;;;;;;;;;5023209;28;20185;-81
2022/01/28 01:03:00;;;;;;;13.33;8.83;;;;;;;;;;5025631;28;20213;-81
2022/01/28 01:05:26;;;;;;;10.77;8.20;;;;;;;;;;5024972;28;20182;-81
2022/01/28 01:07:51;;;;;;;10.93;7.70;;;;;;;;;;5025378;28;20190;-81
2022/01/28 01:10:16;;;;;;;13.10;9.73;;;;;;;;;;5024590;28;20174;-81
2022/01/28 01:12:45;;;;;;;10.40;6.87;;;;;;;;;;5044086;28;20182;-81
2022/01/28 01:15:12;;;;;;;9.93;7.03;;;;;;;;;;5026261;28;20177;-81
2022/01/28 01:17:44;;;;;;;13.97;10.40;;;;;;;;;;5025362;28;20193;-81
2022/01/28 01:20:19;;;;;;;15.80;10.53;;;;;;;;;;5026197;28;20174;-81
2022/01/28 01:22:52;;;;;;;13.10;9.33;;;;;;;;;;5027901;28;20259;-81
2022/01/28 01:25:25;;;;;;;13.63;8.50;;;;;;;;;;5038697;28;20217;-81
2022/01/28 01:27:54;;;;;;;13.10;7.03;;;;;;;;;;5049578;28;20462;-81
2022/01/28 01:30:19;;;;;;;13.87;9.60;;;;;;;;;;5048780;28;20461;-81
2022/01/28 01:32:45;;;;;;;10.00;7.97;;;;;;;;;;5047580;28;20199;-81
2022/01/28 01:35:10;;;;;;;12.93;8.90;;;;;;;;;;5044516;28;20199;-81
2022/01/28 01:37:35;;;;;;;9.27;7.13;;;;;;;;;;5050856;28;20371;-81
2022/01/28 01:40:01;;;;;;;11.80;8.23;;;;;;;;;;5051986;28;20178;-81
2022/01/28 01:42:39;;;;;;;9.33;6.40;;;;;;;;;;5049020;28;20213;-80
2022/01/28 01:45:54;;;;;;;10.77;8.07;;;;;;;;;;5052412;28;20177;-81
2022/01/28 01:53:25;;;;;;;17.07;10.97;;;;;;;;;;5066362;28;20223;-81
2022/01/28 01:55:50;;;;;;;11.93;9.03;;;;;;;;;;5051753;28;20169;-81
2022/01/28 01:58:20;;;;;;;13.10;9.27;;;;;;;;;;5054442;28;20177;-81
2022/01/28 02:00:45;;;;;;;14.07;9.90;;;;;;;;;;5042146;28;20227;-82
2022/01/28 02:03:10;;;;;;;14.10;9.50;;;;;;;;;;5048016;28;20177;-81
2022/01/28 02:05:35;;;;;;;13.20;9.00;;;;;;;;;;5066018;28;20331;-81
2022/01/28 02:08:06;;;;;;;14.40;9.00;;;;;;;;;;5052248;28;20169;-81
2022/01/28 02:10:32;;;;;;;10.00;8.03;;;;;;;;;;5049618;28;20274;-81
2022/01/28 02:12:58;;;;;;;10.90;8.27;;;;;;;;;;5045149;28;20177;-81
2022/01/28 02:15:23;;;;;;;12.03;7.97;;;;;;;;;;5052929;28;20179;-81
2022/01/28 02:17:48;;;;;;;12.23;8.57;;;;;;;;;;5050286;28;20166;-81
2022/01/28 02:20:34;;;;;;;13.37;9.43;;;;;;;;;;5043845;28;20185;-81
2022/01/28 02:23:00;;;;;;;12.30;7.53;;;;;;;;;;5048829;28;20185;-81
2022/01/28 02:25:27;;;;;;;11.50;7.87;;;;;;;;;;5059688;28;20294;-81
2022/01/28 02:27:53;;;;;;;10.10;8.70;;;;;;;;;;5046160;28;20265;-81
2022/01/28 02:30:18;;;;;;;10.63;7.57;;;;;;;;;;5046767;28;20189;-81
2022/01/28 02:32:45;;;;;;;9.70;8.43;;;;;;;;;;5044217;28;20182;-81
2022/01/28 02:35:10;;;;;;;10.20;7.33;;;;;;;;;;5048245;28;20181;-81
2022/01/28 02:37:36;;;;;;;9.90;7.93;;;;;;;;;;5045892;28;20272;-81
2022/01/28 02:40:02;;;;;;;11.97;8.27;;;;;;;;;;5046513;28;20216;-81
2022/01/28 02:42:44;;;;;;;12.73;7.73;;;;;;;;;;5041772;28;20197;-81
2022/01/28 02:45:09;;;;;;;10.07;5.93;;;;;;;;;;5047741;28;20181;-81
2022/01/28 02:47:35;;;;;;;11.33;7.93;;;;;;;;;;5051530;28;20185;-81
2022/01/28 02:50:03;;;;;;;9.93;7.07;;;;;;;;;;5052478;28;20181;-81
2022/01/28 02:52:36;;;;;;;11.07;7.50;;;;;;;;;;5049780;28;20193;-81
2022/01/28 02:55:07;;;;;;;9.40;6.47;;;;;;;;;;5045088;28;20274;-81
2022/01/28 02:57:34;;;;;;;11.77;7.77;;;;;;;;;;5041564;28;20210;-81
2022/01/28 02:59:59;;;;;;;10.43;6.73;;;;;;;;;;5049966;28;20238;-81
2022/01/28 03:02:24;;;;;;;6.63;5.50;;;;;;;;;;5051106;28;20305;-81
2022/01/28 03:05:24;;;;;;;8.63;7.13;;;;;;;;;;5051166;28;20348;-81
2022/01/28 03:07:46;;;;;;;8.63;5.70;;;;;;;;;;5060669;28;20234;-81
2022/01/28 03:13:00;;;;;;;12.67;8.07;;;;;;;;;;5064999;28;20179;-81
2022/01/28 03:15:23;;;;;;;13.27;7.47;;;;;;;;;;5063065;28;20169;-81
2022/01/28 03:17:54;;;;;;;15.17;9.07;;;;;;;;;;5049073;28;20250;-81
2022/01/28 03:22:45;;;;;;;14.57;8.47;;;;;;;;;;5065130;28;20209;-81
2022/01/28 03:25:11;;;;;;;12.83;8.63;;;;;;;;;;5064138;28;20275;-81
2022/01/28 03:27:54;;;;;;;12.13;8.70;;;;;;;;;;5065222;28;20178;-81
2022/01/28 03:30:20;;;;;;;14.87;8.37;;;;;;;;;;5047138;28;20175;-81
2022/01/28 03:32:45;;;;;;;16.47;10.47;;;;;;;;;;5044482;28;20188;-81
2022/01/28 03:35:13;;;;;;;11.40;7.50;;;;;;;;;;5051087;28;20245;-81
2022/01/28 03:37:38;;;;;;;13.67;9.77;;;;;;;;;;5070384;28;20189;-81
2022/01/28 03:40:06;;;;;;;15.17;10.37;;;;;;;;;;5043790;28;20247;-81
2022/01/28 03:42:31;;;;;;;14.97;8.07;;;;;;;;;;5047458;28;20204;-81
2022/01/28 03:44:57;;;;;;;11.93;8.87;;;;;;;;;;5042052;28;20170;-81
2022/01/28 03:47:22;;;;;;;13.53;9.57;;;;;;;;;;5048526;28;20177;-81
2022/01/28 03:49:47;;;;;;;15.90;9.63;;;;;;;;;;5067908;28;20201;-81
2022/01/28 03:52:12;;;;;;;16.33;10.00;;;;;;;;;;5048622;28;20246;-80
2022/01/28 03:54:37;;;;;;;13.70;8.63;;;;;;;;;;5048660;28;20251;-81
2022/01/28 03:57:04;;;;;;;10.80;7.43;;;;;;;;;;5044341;28;20173;-81
2022/01/28 03:59:29;;;;;;;10.47;6.23;;;;;;;;;;5063883;28;20384;-81
2022/01/28 04:01:55;;;;;;;13.50;9.17;;;;;;;;;;5061023;28;20220;-81
2022/01/28 04:05:46;;;;;;;13.13;8.10;;;;;;;;;;5046075;28;20166;-80
2022/01/28 04:12:41;;;;;;;12.80;7.67;;;;;;;;;;5067284;28;20181;-80
2022/01/28 04:17:32;;;;;;;15.07;8.53;;;;;;;;;;5058893;28;20190;-81
2022/01/28 04:19:57;;;;;;;13.43;8.23;;;;;;;;;;5045732;28;20200;-81
2022/01/28 04:22:23;;;;;;;14.77;8.63;;;;;;;;;;5049409;28;20258;-80
2022/01/28 04:24:48;;;;;;;12.93;9.33;;;;;;;;;;5049408;28;20256;-80
2022/01/28 04:27:13;;;;;;;12.03;8.37;;;;;;;;;;5048916;28;20186;-81
2022/01/28 04:29:39;;;;;;;8.77;7.20;;;;;;;;;;5046340;28;20180;-81
2022/01/28 04:32:05;;;;;;;12.33;7.37;;;;;;;;;;5047953;28;20181;-81
2022/01/28 04:34:30;;;;;;;12.27;7.83;;;;;;;;;;5042270;28;20194;-81
2022/01/28 04:40:13;;;;;;;15.00;8.03;;;;;;;;;;5062580;28;20468;-81
2022/01/28 04:47:30;;;;;;;12.00;8.33;;;;;;;;;;5064577;28;20184;-81
2022/01/28 04:50:15;;;;;;;15.77;10.23;;;;;;;;;;5048756;28;20169;-81
2022/01/28 05:03:26;;;;;;;11.93;7.20;;;;;;;;;;5066585;28;20185;-81
2022/01/28 05:27:10;;;;;;;15.93;8.20;;;;;;;;;;5063129;28;20192;-80
2022/01/28 05:29:36;;;;;;;11.40;6.07;;;;;;;;;;5045442;28;20181;-80
2022/01/28 05:32:01;;;;;;;11.43;7.13;;;;;;;;;;5046567;28;20264;-80
2022/01/28 05:34:27;;;;;;;14.27;7.17;;;;;;;;;;5047777;28;20206;-81
2022/01/28 05:36:56;;;;;;;11.07;6.60;;;;;;;;;;5044176;28;20177;-80
2022/01/28 05:39:21;;;;;;;13.20;6.83;;;;;;;;;;5048080;28;20181;-80
2022/01/28 05:41:46;;;;;;;9.77;6.43;;;;;;;;;;5047301;28;20402;-80
2022/01/28 05:44:11;;;;;;;9.53;5.23;;;;;;;;;;5050498;28;20184;-80
2022/01/28 05:46:37;;;;;;;12.03;7.57;;;;;;;;;;5048065;28;20181;-80
2022/01/28 05:49:02;;;;;;;13.50;8.63;;;;;;;;;;5046137;28;20249;-80
2022/01/28 05:51:27;;;;;;;10.03;6.33;;;;;;;;;;5048329;28;20185;-80
2022/01/28 05:53:58;;;;;;;15.00;8.50;;;;;;;;;;5046093;28;20178;-80
2022/01/28 05:56:25;;;;;;;11.27;7.93;;;;;;;;;;5043817;28;20192;-80
2022/01/28 05:58:50;;;;;;;12.80;7.30;;;;;;;;;;5047643;28;20269;-80
2022/01/28 06:01:15;;;;;;;12.17;8.80;;;;;;;;;;5047256;28;20295;-80
2022/01/28 06:03:42;;;;;;;14.70;8.70;;;;;;;;;;5044667;28;20176;-81
2022/01/28 06:06:12;;;;;;;16.60;9.37;;;;;;;;;;5045452;28;20199;-80
2022/01/28 06:08:37;;;;;;;12.63;8.07;;;;;;;;;;5043978;28;20178;-80
2022/01/28 06:11:02;;;;;;;13.57;7.20;;;;;;;;;;5044114;28;20524;-80
2022/01/28 06:13:29;;;;;;;16.63;8.53;;;;;;;;;;5047642;28;20216;-80
2022/01/28 06:15:56;;;;;;;13.47;9.27;;;;;;;;;;5047902;28;20189;-77
2022/01/28 06:18:22;;;;;;;16.40;9.77;;;;;;;;;;5045526;28;20181;-80
2022/01/28 06:20:47;;;;;;;19.30;9.87;;;;;;;;;;5052643;28;20201;-80
2022/01/28 06:23:12;;;;;;;12.07;7.90;;;;;;;;;;5047485;28;20181;-80
2022/01/28 06:25:39;;;;;;;18.83;10.77;;;;;;;;;;5052730;28;20342;-80
2022/01/28 06:28:04;;;;;;;14.03;9.80;;;;;;;;;;5053736;28;20185;-80
2022/01/28 06:30:29;;;;;;;17.23;11.27;;;;;;;;;;5050042;28;20174;-80
2022/01/28 06:32:55;;;;;;;20.20;11.97;;;;;;;;;;5049671;28;20174;-80
2022/01/28 06:35:20;;;;;;;18.63;10.47;;;;;;;;;;5066734;22;20238;-80
2022/01/28 06:37:45;;;;;;;17.70;10.23;;;;;;;;;;5062565;22;20234;-76
2022/01/28 06:40:12;;;;;;;17.67;9.87;;;;;;;;;;5026923;28;20237;-77
2022/01/28 06:42:37;;;;;;;18.07;11.87;;;;;;;;;;5012604;28;20210;-77
2022/01/28 06:45:03;;;;;;;13.93;8.20;;;;;;;;;;5014727;28;20182;-79
2022/01/28 06:47:28;;;;;;;18.83;8.63;;;;;;;;;;5012108;28;20182;-80
2022/01/28 06:49:53;;;;;;;13.13;8.40;;;;;;;;;;5011690;28;20183;-80
2022/01/28 06:52:18;;;;;;;12.20;7.90;;;;;;;;;;5028975;28;20196;-80
2022/01/28 06:54:44;;;;;;;16.40;8.50;;;;;;;;;;5029338;28;20189;-79
2022/01/28 06:57:09;;;;;;;14.47;8.33;;;;;;;;;;5009876;28;20191;-79
2022/01/28 06:59:34;;;;;;;8.03;4.77;;;;;;;;;;5013815;28;20209;-79
2022/01/28 07:01:59;;;;;;;10.03;7.57;;;;;;;;;;5012585;28;20195;-79
2022/01/28 07:04:24;;;;;;;17.47;10.30;;;;;;;;;;5015239;28;20238;-79
2022/01/28 07:06:50;;;;;;;15.50;8.83;;;;;;;;;;5013149;28;20207;-80
2022/01/28 07:09:16;;;;;;;11.40;7.07;;;;;;;;;;5005166;28;20167;-79
2022/01/28 07:11:43;;;;;;;16.40;9.20;;;;;;;;;;5011432;28;20225;-80
2022/01/28 07:14:08;;;;;;;13.27;7.80;;;;;;;;;;5012130;28;20171;-79
2022/01/28 07:16:33;;;;;;;11.63;7.40;;;;;;;;;;5011279;28;20191;-79
2022/01/28 07:18:59;;;;;;;12.47;8.07;;;;;;;;;;5011702;28;20178;-79
2022/01/28 07:21:24;;;;;;;17.07;9.43;;;;;;;;;;5013966;28;20317;-80
2022/01/28 07:23:49;;;;;;;14.00;7.70;;;;;;;;;;5011877;28;20245;-79
2022/01/28 07:26:14;;;;;;;14.13;8.17;;;;;;;;;;5011105;28;20190;-80
2022/01/28 07:28:41;;;;;;;11.17;7.40;;;;;;;;;;5027926;28;20183;-80
2022/01/28 07:31:08;;;;;;;16.43;8.33;;;;;;;;;;5009742;28;20170;-79
2022/01/28 07:33:33;;;;;;;15.97;10.00;;;;;;;;;;5013016;28;20203;-79
2022/01/28 07:35:59;;;;;;;11.80;7.23;;;;;;;;;;5031296;28;20189;-79
2022/01/28 07:38:24;;;;;;;12.60;9.30;;;;;;;;;;5017319;28;20234;-79
2022/01/28 07:40:50;;;;;;;16.10;9.53;;;;;;;;;;5020093;28;20175;-79
2022/01/28 07:43:15;;;;;;;15.97;9.10;;;;;;;;;;5024563;28;20171;-79
2022/01/28 07:45:40;;;;;;;11.63;7.57;;;;;;;;;;5027238;28;20236;-79
2022/01/28 07:48:05;;;;;;;13.87;7.20;;;;;;;;;;5010728;28;20265;-79
2022/01/28 07:50:31;;;;;;;16.60;9.30;;;;;;;;;;5011236;28;20179;-79
2022/01/28 07:52:56;;;;;;;16.33;9.13;;;;;;;;;;5028626;28;20205;-79
2022/01/28 07:55:21;;;;;;;15.10;9.40;;;;;;;;;;5005193;28;20182;-79
2022/01/28 07:57:46;;;;;;;21.20;9.93;;;;;;;;;;5025150;28;20202;-79
2022/01/28 08:00:12;;;;;;;14.57;9.70;;;;;;;;;;5009147;28;20174;-79
2022/01/28 08:02:37;;;;;;;16.13;10.43;;;;;;;;;;5009253;28;20209;-79
2022/01/28 08:05:03;;;;;;;17.93;9.37;;;;;;;;;;5007771;28;20186;-79
2022/01/28 08:07:28;;;;;;;16.93;9.40;;;;;;;;;;4997956;28;20253;-79
2022/01/28 08:09:53;;;;;;;13.83;9.63;;;;;;;;;;5023634;28;20174;-79
2022/01/28 08:12:19;;;;;;;14.50;8.87;;;;;;;;;;5008189;28;20179;-79
2022/01/28 08:14:44;;;;;;;13.87;8.50;;;;;;;;;;5008104;28;20237;-79
2022/01/28 08:17:11;;;;;;;15.30;10.43;;;;;;;;;;5006426;28;20189;-79
2022/01/28 08:19:36;;;;;;;15.30;9.37;;;;;;;;;;5023812;28;20182;-80
2022/01/28 08:22:01;;;;;;;18.83;9.77;;;;;;;;;;5010044;28;20200;-80
2022/01/28 08:24:26;;;;;;;15.57;9.10;;;;;;;;;;5009772;28;20186;-80
2022/01/28 08:26:52;;;;;;;11.73;7.70;;;;;;;;;;5010705;28;20241;-80
2022/01/28 08:29:17;;;;;;;17.43;9.73;;;;;;;;;;5002970;28;20178;-80
2022/01/28 08:31:43;;;;;;;13.57;8.03;;;;;;;;;;5020110;28;20208;-80
2022/01/28 08:34:08;;;;;;;13.87;8.80;;;;;;;;;;5021972;28;20197;-80
2022/01/28 08:36:34;;;;;;;7.37;5.23;;;;;;;;;;5024098;28;20266;-80
2022/01/28 08:38:59;;;;;;;13.20;8.67;;;;;;;;;;5009224;28;20226;-80
2022/01/28 08:41:25;;;;;;;13.40;8.23;;;;;;;;;;5009624;28;20218;-80
2022/01/28 08:43:51;;;;;;;10.83;7.10;;;;;;;;;;5009828;28;20185;-80
2022/01/28 08:46:16;;;;;;;15.97;9.27;;;;;;;;;;5009745;28;20200;-80
2022/01/28 08:48:42;;;;;;;14.97;9.67;;;;;;;;;;5015064;28;20202;-80
2022/01/28 08:51:07;;;;;;;16.23;8.63;;;;;;;;;;5016687;28;20181;-80
2022/01/28 08:53:33;;;;;;;11.33;8.20;;;;;;;;;;5009810;28;20179;-80
2022/01/28 08:55:58;;;;;;;14.90;9.37;;;;;;;;;;5014823;28;20178;-80
2022/01/28 08:58:23;;;;;;;14.90;8.70;;;;;;;;;;5026509;28;20192;-80
2022/01/28 09:00:50;;;;;;;10.63;7.43;;;;;;;;;;5024985;28;20274;-80
2022/01/28 09:03:16;;;;;;;14.70;7.17;;;;;;;;;;5010493;28;20172;-80
2022/01/28 09:05:41;;;;;;;13.17;8.60;;;;;;;;;;5028451;28;20179;-80
2022/01/28 09:08:10;;;;;;;13.97;6.63;;;;;;;;;;5011416;28;20181;-80
2022/01/28 09:10:38;;;;;;;15.87;8.73;;;;;;;;;;5018237;28;20175;-81
2022/01/28 09:15:29;;;;;;;11.67;7.67;;;;;;;;;;5030708;28;20507;-80
2022/01/28 09:17:54;;;;;;;13.97;9.10;;;;;;;;;;5014413;28;20182;-80
2022/01/28 09:20:19;;;;;;;12.87;8.90;;;;;;;;;;5009502;28;20289;-80
2022/01/28 09:22:44;;;;;;;12.73;7.37;;;;;;;;;;5009563;28;20198;-81
2022/01/28 09:25:10;;;;;;;10.10;7.37;;;;;;;;;;5025884;28;20202;-80
2022/01/28 09:27:35;;;;;;;16.20;8.67;;;;;;;;;;5026684;28;20270;-80
2022/01/28 09:30:00;;;;;;;12.33;7.10;;;;;;;;;;5015034;28;20306;-80
2022/01/28 09:32:25;;;;;;;12.03;7.70;;;;;;;;;;5018383;28;20253;-80
2022/01/28 09:34:51;;;;;;;11.07;7.73;;;;;;;;;;5012364;28;20279;-80
2022/01/28 09:37:16;;;;;;;14.43;7.13;;;;;;;;;;5022466;28;20209;-80
2022/01/28 09:39:45;;;;;;;11.27;6.87;;;;;;;;;;5028021;28;20197;-81
2022/01/28 09:42:13;;;;;;;15.50;6.37;;;;;;;;;;5017740;28;20261;-80
2022/01/28 09:44:39;;;;;;;13.70;6.83;;;;;;;;;;5029314;28;20174;-80
2022/01/28 09:47:04;;;;;;;9.23;6.43;;;;;;;;;;5031577;28;20197;-80
2022/01/28 09:49:31;;;;;;;12.83;7.17;;;;;;;;;;5050559;28;20361;-80
2022/01/28 09:51:56;;;;;;;9.57;7.10;;;;;;;;;;5033774;28;20178;-80
2022/01/28 09:54:21;;;;;;;10.30;7.20;;;;;;;;;;5027940;28;20189;-80
2022/01/28 09:56:47;;;;;;;13.20;7.23;;;;;;;;;;5027239;28;20178;-80
2022/01/28 09:59:12;;;;;;;7.97;6.27;;;;;;;;;;5032701;28;20204;-80
2022/01/28 10:01:50;;;;;;;13.77;7.60;;;;;;;;;;5028622;28;20198;-80
2022/01/28 10:04:17;;;;;;;12.13;7.53;;;;;;;;;;5032761;28;20471;-80
2022/01/28 10:06:43;;;;;;;12.70;7.83;;;;;;;;;;5025457;28;20182;-80
2022/01/28 10:09:08;;;;;;;12.87;6.97;;;;;;;;;;5037162;28;20228;-81
2022/01/28 10:11:35;;;;;;;10.53;6.80;;;;;;;;;;5031652;28;20177;-79
2022/01/28 10:14:06;;;;;;;9.57;6.77;;;;;;;;;;5047943;28;20193;-80
2022/01/28 10:16:32;;;;;;;10.37;7.00;;;;;;;;;;5030303;28;20275;-79
2022/01/28 10:19:04;;;;;;;8.37;6.03;;;;;;;;;;5029539;28;20346;-80
2022/01/28 10:21:40;;;;;;;12.70;6.73;;;;;;;;;;5012209;28;20206;-80
2022/01/28 10:24:08;;;;;;;11.93;6.53;;;;;;;;;;5030290;28;20169;-80
2022/01/28 10:26:37;;;;;;;10.97;7.03;;;;;;;;;;5031461;28;20204;-80
2022/01/28 10:29:04;;;;;;;8.97;6.33;;;;;;;;;;5047577;28;20459;-79
2022/01/28 10:31:38;;;;;;;8.57;5.90;;;;;;;;;;5023697;28;20240;-80
2022/01/28 10:34:10;;;;;;;8.97;6.97;;;;;;;;;;5029064;28;20207;-80
2022/01/28 10:36:36;;;;;;;10.33;6.70;;;;;;;;;;5028414;28;20174;-79
2022/01/28 10:39:01;;;;;;;11.57;7.67;;;;;;;;;;5033961;28;20233;-80
2022/01/28 10:41:26;;;;;;;10.60;5.13;;;;;;;;;;5029534;28;20192;-80
2022/01/28 10:43:53;;;;;;;8.80;6.40;;;;;;;;;;5029004;28;20178;-79
2022/01/28 10:46:26;;;;;;;9.60;6.83;;;;;;;;;;5031750;28;20181;-80
2022/01/28 10:48:56;;;;;;;10.07;6.87;;;;;;;;;;5031050;28;20324;-79
2022/01/28 10:51:35;;;;;;;10.93;6.27;;;;;;;;;;5027250;28;20174;-79
2022/01/28 10:54:06;;;;;;;10.03;6.67;;;;;;;;;;5026542;28;20186;-79
2022/01/28 10:56:44;;;;;;;7.87;6.23;;;;;;;;;;5025801;28;20269;-79
2022/01/28 10:59:10;;;;;;;10.60;6.73;;;;;;;;;;5040675;28;20185;-80
2022/01/28 11:01:35;;;;;;;10.43;7.73;;;;;;;;;;5028967;28;20198;-79
2022/01/28 11:04:00;;;;;;;11.27;6.73;;;;;;;;;;5023181;28;20177;-79
2022/01/28 11:06:25;;;;;;;11.70;7.50;;;;;;;;;;5030810;28;20225;-80
2022/01/28 11:08:51;;;;;;;17.27;10.63;;;;;;;;;;5029970;28;20184;-79
2022/01/28 11:11:16;;;;;;;12.43;7.20;;;;;;;;;;5027295;28;20200;-79
2022/01/28 11:13:42;;;;;;;12.13;6.03;;;;;;;;;;5030239;28;20182;-80
2022/01/28 11:16:08;;;;;;;30.53;17.10;;;;;;;;;;5046715;28;20178;-80
2022/01/28 11:18:33;;;;;;;10.60;7.10;;;;;;;;;;5028101;28;20265;-79
2022/01/28 11:21:01;;;;;;;15.90;8.43;;;;;;;;;;5031778;28;20188;-79
2022/01/28 11:23:42;;;;;;;11.63;6.87;;;;;;;;;;5033354;28;20264;-79
2022/01/28 11:26:19;;;;;;;12.03;6.07;;;;;;;;;;5025876;28;20166;-79
2022/01/28 11:28:47;;;;;;;7.43;5.40;;;;;;;;;;5026261;28;20215;-80
2022/01/28 11:31:14;;;;;;;9.00;5.30;;;;;;;;;;5023061;28;20186;-79
2022/01/28 11:33:43;;;;;;;9.17;5.40;;;;;;;;;;5032594;28;20197;-79
2022/01/28 11:36:09;;;;;;;10.73;5.90;;;;;;;;;;5029150;28;20186;-79
2022/01/28 11:38:36;;;;;;;8.40;6.00;;;;;;;;;;5044402;28;20236;-79
2022/01/28 11:41:08;;;;;;;9.03;4.70;;;;;;;;;;5033106;28;20196;-79
2022/01/28 11:43:42;;;;;;;8.77;5.83;;;;;;;;;;5026369;28;20183;-79
2022/01/28 11:46:09;;;;;;;7.60;4.77;;;;;;;;;;5038059;28;20265;-79
2022/01/28 11:48:52;;;;;;;10.27;6.50;;;;;;;;;;5026550;28;20186;-78
2022/01/28 11:51:20;;;;;;;7.30;4.40;;;;;;;;;;5025153;28;20181;-79
2022/01/28 11:53:59;;;;;;;9.63;5.37;;;;;;;;;;5030335;28;20264;-79
2022/01/28 11:56:24;;;;;;;7.17;5.03;;;;;;;;;;5048419;28;20189;-79
2022/01/28 11:58:50;;;;;;;7.43;5.23;;;;;;;;;;5023773;28;20174;-79
2022/01/28 12:01:15;;;;;;;12.60;5.43;;;;;;;;;;5026895;28;20205;-79
2022/01/28 12:03:41;;;;;;;7.10;4.33;;;;;;;;;;5029902;28;20213;-79
2022/01/28 12:06:09;;;;;;;7.80;5.13;;;;;;;;;;5030103;28;20257;-79
2022/01/28 12:08:36;;;;;;;9.53;6.63;;;;;;;;;;5029265;28;20197;-79
2022/01/28 12:11:06;;;;;;;8.03;4.90;;;;;;;;;;5029634;28;20178;-79
2022/01/28 12:13:33;;;;;;;7.23;6.20;;;;;;;;;;5019324;28;20209;-79
2022/01/28 12:18:24;;;;;;;10.47;6.10;;;;;;;;;;5045150;28;21074;-79
2022/01/28 12:20:50;;;;;;;10.20;6.03;;;;;;;;;;5024569;28;20261;-79
2022/01/28 12:23:18;;;;;;;9.77;8.00;;;;;;;;;;5036481;28;20177;-78
2022/01/28 12:25:44;;;;;;;10.10;7.00;;;;;;;;;;5026899;28;20197;-78
2022/01/28 12:28:12;;;;;;;11.37;9.87;;;;;;;;;;5029126;28;20174;-78
2022/01/28 12:30:37;;;;;;;12.50;7.77;;;;;;;;;;5044973;28;20256;-79
2022/01/28 12:33:02;;;;;;;12.47;9.40;;;;;;;;;;5027682;28;20431;-78
2022/01/28 12:35:28;;;;;;;11.77;8.73;;;;;;;;;;5028617;28;20218;-79
2022/01/28 12:37:59;;;;;;;12.40;9.43;;;;;;;;;;5024964;28;20219;-79
2022/01/28 12:40:28;;;;;;;15.70;10.43;;;;;;;;;;5013112;28;20237;-79
2022/01/28 12:42:54;;;;;;;17.23;10.10;;;;;;;;;;5010809;28;20208;-79
2022/01/28 12:45:19;;;;;;;12.10;9.20;;;;;;;;;;5011882;28;20189;-78
2022/01/28 12:47:44;;;;;;;13.70;10.67;;;;;;;;;;5010049;28;20194;-78
2022/01/28 12:50:09;;;;;;;15.23;10.70;;;;;;;;;;5009144;28;20267;-78
2022/01/28 12:52:35;;;;;;;15.70;10.27;;;;;;;;;;5010811;28;20179;-77
2022/01/28 12:55:01;;;;;;;11.13;8.83;;;;;;;;;;5011073;28;20171;-79
2022/01/28 12:57:26;;;;;;;15.40;11.07;;;;;;;;;;5008805;28;20298;-78
2022/01/28 12:59:52;;;;;;;12.60;8.53;;;;;;;;;;5010245;28;20225;-79
2022/01/28 13:02:18;;;;;;;11.77;7.50;;;;;;;;;;5013710;28;20202;-79
2022/01/28 13:09:56;;;;;;;8.23;7.40;;;;;;;;;;5025770;28;20184;-79
2022/01/28 13:12:21;;;;;;;15.33;8.63;;;;;;;;;;5005550;28;20179;-78
2022/01/28 13:14:46;;;;;;;9.00;6.03;;;;;;;;;;5009938;28;20297;-79
2022/01/28 13:17:17;;;;;;;13.03;8.53;;;;;;;;;;5009636;28;20254;-78
2022/01/28 13:19:42;;;;;;;12.37;8.17;;;;;;;;;;5010637;28;20182;-78
2022/01/28 13:22:08;;;;;;;10.37;6.60;;;;;;;;;;5012912;28;20206;-75
2022/01/28 13:24:33;;;;;;;12.47;7.20;;;;;;;;;;5022402;28;20202;-77
2022/01/28 13:27:06;;;;;;;10.23;7.20;;;;;;;;;;5031856;28;20179;-76
2022/01/28 13:29:43;;;;;;;9.97;6.30;;;;;;;;;;5015643;28;20567;-76
2022/01/28 13:32:10;;;;;;;11.73;8.00;;;;;;;;;;5031536;28;20170;-76
2022/01/28 13:34:46;;;;;;;12.97;6.77;;;;;;;;;;5012619;28;20213;-76
2022/01/28 13:37:11;;;;;;;10.10;7.50;;;;;;;;;;5012972;28;20185;-76
2022/01/28 13:39:40;;;;;;;11.40;6.13;;;;;;;;;;5021876;28;20220;-76
2022/01/28 13:42:10;;;;;;;9.07;7.43;;;;;;;;;;5042711;28;20245;-76
2022/01/28 13:44:38;;;;;;;13.13;7.23;;;;;;;;;;5026153;28;20522;-76
2022/01/28 13:47:04;;;;;;;9.33;6.67;;;;;;;;;;5025859;28;20244;-76
2022/01/28 13:49:29;;;;;;;13.77;7.07;;;;;;;;;;5022487;28;20178;-76
2022/01/28 13:52:05;;;;;;;12.00;6.00;;;;;;;;;;5032136;28;20182;-76
2022/01/28 13:54:30;;;;;;;10.07;6.17;;;;;;;;;;5030972;28;20178;-76
2022/01/28 13:56:59;;;;;;;9.17;5.70;;;;;;;;;;5023909;28;20186;-76
2022/01/28 13:59:29;;;;;;;10.67;5.67;;;;;;;;;;5031622;28;20216;-76
2022/01/28 14:01:59;;;;;;;6.93;5.67;;;;;;;;;;5025290;28;20543;-76
2022/01/28 14:04:35;;;;;;;9.57;6.47;;;;;;;;;;5027854;28;20173;-77
2022/01/28 14:07:27;;;;;;;11.57;5.43;;;;;;;;;;5027424;28;20276;-77
2022/01/28 14:09:55;;;;;;;9.57;5.90;;;;;;;;;;5024731;28;20281;-77
2022/01/28 14:12:27;;;;;;;13.93;8.13;;;;;;;;;;5047875;28;20235;-77
2022/01/28 14:14:58;;;;;;;11.10;6.67;;;;;;;;;;5043371;28;20176;-77
2022/01/28 14:17:24;;;;;;;7.40;5.70;;;;;;;;;;5044467;28;20174;-77
2022/01/28 14:19:51;;;;;;;8.20;5.30;;;;;;;;;;5028197;28;20236;-76
2022/01/28 14:22:16;;;;;;;11.07;5.80;;;;;;;;;;5017889;28;20214;-77
2022/01/28 14:24:41;;;;;;;11.63;6.13;;;;;;;;;;5027264;28;20176;-76
2022/01/28 14:32:10;;;;;;;10.80;6.17;;;;;;;;;;5048403;28;20177;-77
2022/01/28 14:34:36;;;;;;;8.43;6.60;;;;;;;;;;5041614;28;20297;-76
2022/01/28 14:37:03;;;;;;;9.73;5.60;;;;;;;;;;5049018;28;20269;-76
2022/01/28 14:39:29;;;;;;;11.87;7.60;;;;;;;;;;5026883;28;20234;-77
2022/01/28 14:41:56;;;;;;;9.83;6.33;;;;;;;;;;5023429;28;20209;-77
2022/01/28 14:44:21;;;;;;;13.67;7.83;;;;;;;;;;5023914;28;20174;-76
2022/01/28 14:46:47;;;;;;;10.50;7.40;;;;;;;;;;5027647;28;20205;-77
2022/01/28 14:49:12;;;;;;;14.47;8.40;;;;;;;;;;5024357;28;20196;-76
2022/01/28 14:51:42;;;;;;;11.43;7.40;;;;;;;;;;5029336;28;20197;-77
2022/01/28 14:54:07;;;;;;;10.83;6.90;;;;;;;;;;5042076;28;20184;-77
2022/01/28 14:56:32;;;;;;;12.77;8.40;;;;;;;;;;5014211;28;20247;-77
2022/01/28 14:59:00;;;;;;;12.83;7.70;;;;;;;;;;5031381;28;20182;-76
2022/01/28 15:01:25;;;;;;;11.37;6.00;;;;;;;;;;5029486;28;20194;-77
2022/01/28 15:03:51;;;;;;;11.07;7.30;;;;;;;;;;5029887;28;20186;-77
2022/01/28 15:06:16;;;;;;;11.70;7.70;;;;;;;;;;5024762;28;20212;-77
2022/01/28 15:08:44;;;;;;;11.87;6.77;;;;;;;;;;5027270;28;20173;-76
2022/01/28 15:11:14;;;;;;;14.40;8.50;;;;;;;;;;5028158;28;20205;-77
2022/01/28 15:13:40;;;;;;;12.73;8.13;;;;;;;;;;5027791;28;20190;-77
2022/01/28 15:16:05;;;;;;;10.63;7.27;;;;;;;;;;5048733;28;20178;-76
2022/01/28 15:18:30;;;;;;;13.47;8.53;;;;;;;;;;5030795;28;20232;-76
2022/01/28 15:20:56;;;;;;;15.53;12.47;;;;;;;;;;5022572;28;20183;-77
2022/01/28 15:23:21;;;;;;;12.77;11.13;;;;;;;;;;5028821;28;20596;-76
2022/01/28 15:25:46;;;;;;;11.83;9.03;;;;;;;;;;5025885;28;20183;-77
2022/01/28 15:28:17;;;;;;;17.13;10.20;;;;;;;;;;5030474;28;20479;-77
2022/01/28 15:36:10;;;;;;;14.03;10.67;;;;;;;;;;5047192;28;20189;-77
2022/01/28 15:38:35;;;;;;;14.93;10.47;;;;;;;;;;5015978;28;20218;-77
2022/01/28 15:41:04;;;;;;;9.10;7.23;;;;;;;;;;5027266;28;20257;-77
2022/01/28 15:43:29;;;;;;;12.60;8.13;;;;;;;;;;5010572;28;21857;-77
2022/01/28 15:45:55;;;;;;;10.70;6.70;;;;;;;;;;5005368;28;20197;-77
2022/01/28 15:48:20;;;;;;;14.30;7.37;;;;;;;;;;5009341;28;20260;-77
2022/01/28 15:50:49;;;;;;;14.87;8.67;;;;;;;;;;5006122;28;20281;-77
2022/01/28 15:53:14;;;;;;;14.60;8.37;;;;;;;;;;5005829;28;20179;-77
2022/01/28 15:55:39;;;;;;;13.03;8.17;;;;;;;;;;5022404;28;20194;-77
2022/01/28 15:58:05;;;;;;;12.10;7.90;;;;;;;;;;5010926;28;20186;-77
2022/01/28 16:00:30;;;;;;;10.50;7.57;;;;;;;;;;5000856;28;20178;-77
2022/01/28 16:02:55;;;;;;;14.83;8.20;;;;;;;;;;5006486;28;20278;-77
2022/01/28 16:05:21;;;;;;;15.47;8.93;;;;;;;;;;5006931;28;20202;-77
2022/01/28 16:07:46;;;;;;;12.00;7.63;;;;;;;;;;5006939;28;20198;-77
2022/01/28 16:10:17;;;;;;;13.50;7.87;;;;;;;;;;5009041;28;20205;-77
2022/01/28 16:12:57;;;;;;;12.17;7.80;;;;;;;;;;5007145;28;20605;-77